sensor_id;sensor_type;location;lat;lon;timestamp;pressure;altitude;pressure_sealevel;temperature;humidity
78431;BME280;67727;50.236;22.452;2023-07-29T00:00:46;99017.55;;;17.00;78.90
78431;BME280;67727;50.236;22.452;2023-07-29T00:03:25;99020.80;;;16.99;78.95
78431;BME280;67727;50.236;22.452;2023-07-29T00:05:52;99021.89;;;17.00;78.97
78431;BME280;67727;50.236;22.452;2023-07-29T00:08:19;99020.26;;;17.01;79.03
78431;BME280;67727;50.236;22.452;2023-07-29T00:10:46;99012.83;;;17.04;79.21
78431;BME280;67727;50.236;22.452;2023-07-29T00:13:12;99009.06;;;17.09;79.08
78431;BME280;67727;50.236;22.452;2023-07-29T00:15:39;99009.85;;;17.13;79.08
78431;BME280;67727;50.236;22.452;2023-07-29T00:18:06;99006.73;;;17.16;79.27
78431;BME280;67727;50.236;22.452;2023-07-29T00:20:33;99010.39;;;17.18;79.13
78431;BME280;67727;50.236;22.452;2023-07-29T00:23:00;99013.13;;;17.19;79.19
78431;BME280;67727;50.236;22.452;2023-07-29T00:25:28;99017.05;;;17.19;79.13
78431;BME280;67727;50.236;22.452;2023-07-29T00:27:56;99016.04;;;17.20;79.02
78431;BME280;67727;50.236;22.452;2023-07-29T00:30:23;99016.55;;;17.21;79.01
78431;BME280;67727;50.236;22.452;2023-07-29T00:32:49;99013.62;;;17.22;79.20
78431;BME280;67727;50.236;22.452;2023-07-29T00:35:16;99011.77;;;17.25;79.19
78431;BME280;67727;50.236;22.452;2023-07-29T00:37:43;99009.19;;;17.28;79.22
78431;BME280;67727;50.236;22.452;2023-07-29T00:40:15;99012.15;;;17.31;79.05
78431;BME280;67727;50.236;22.452;2023-07-29T00:42:43;99010.67;;;17.32;79.02
78431;BME280;67727;50.236;22.452;2023-07-29T00:45:10;99007.23;;;17.34;79.04
78431;BME280;67727;50.236;22.452;2023-07-29T00:47:37;99010.06;;;17.34;78.88
78431;BME280;67727;50.236;22.452;2023-07-29T00:50:06;99016.17;;;17.35;78.91
78431;BME280;67727;50.236;22.452;2023-07-29T00:52:33;99015.55;;;17.35;79.23
78431;BME280;67727;50.236;22.452;2023-07-29T00:55:00;99021.13;;;17.36;79.12
78431;BME280;67727;50.236;22.452;2023-07-29T00:57:29;99019.94;;;17.37;79.30
78431;BME280;67727;50.236;22.452;2023-07-29T00:59:56;99022.21;;;17.38;79.24
78431;BME280;67727;50.236;22.452;2023-07-29T01:02:24;99024.34;;;17.39;79.32
78431;BME280;67727;50.236;22.452;2023-07-29T01:04:58;99024.71;;;17.40;79.28
78431;BME280;67727;50.236;22.452;2023-07-29T01:10:14;99023.86;;;17.40;79.17
78431;BME280;67727;50.236;22.452;2023-07-29T01:13:01;99024.29;;;17.37;79.18
78431;BME280;67727;50.236;22.452;2023-07-29T01:18:29;99027.20;;;17.36;79.39
78431;BME280;67727;50.236;22.452;2023-07-29T01:21:18;99027.98;;;17.37;79.48
78431;BME280;67727;50.236;22.452;2023-07-29T01:23:46;99028.52;;;17.37;79.32
78431;BME280;67727;50.236;22.452;2023-07-29T01:26:13;99031.63;;;17.37;79.46
78431;BME280;67727;50.236;22.452;2023-07-29T01:28:40;99030.56;;;17.37;79.51
78431;BME280;67727;50.236;22.452;2023-07-29T01:31:13;99032.21;;;17.37;79.53
78431;BME280;67727;50.236;22.452;2023-07-29T01:33:53;99032.98;;;17.38;79.43
78431;BME280;67727;50.236;22.452;2023-07-29T01:36:27;99029.65;;;17.37;79.27
78431;BME280;67727;50.236;22.452;2023-07-29T01:38:56;99030.59;;;17.35;79.29
78431;BME280;67727;50.236;22.452;2023-07-29T01:41:24;99037.42;;;17.32;79.24
78431;BME280;67727;50.236;22.452;2023-07-29T01:43:52;99033.43;;;17.29;79.27
78431;BME280;67727;50.236;22.452;2023-07-29T01:46:20;99029.54;;;17.27;79.15
78431;BME280;67727;50.236;22.452;2023-07-29T01:48:47;99028.01;;;17.25;79.32
78431;BME280;67727;50.236;22.452;2023-07-29T01:51:13;99028.08;;;17.24;79.24
78431;BME280;67727;50.236;22.452;2023-07-29T01:53:40;99026.90;;;17.22;79.40
78431;BME280;67727;50.236;22.452;2023-07-29T01:56:07;99028.80;;;17.20;79.18
78431;BME280;67727;50.236;22.452;2023-07-29T01:58:34;99030.48;;;17.19;79.10
78431;BME280;67727;50.236;22.452;2023-07-29T02:01:01;99033.85;;;17.16;79.45
78431;BME280;67727;50.236;22.452;2023-07-29T02:03:27;99034.61;;;17.13;79.35
78431;BME280;67727;50.236;22.452;2023-07-29T02:05:54;99039.53;;;17.10;79.23
78431;BME280;67727;50.236;22.452;2023-07-29T02:08:21;99038.55;;;17.07;79.26
78431;BME280;67727;50.236;22.452;2023-07-29T02:10:48;99035.88;;;17.05;79.34
78431;BME280;67727;50.236;22.452;2023-07-29T02:13:15;99035.26;;;17.03;79.20
78431;BME280;67727;50.236;22.452;2023-07-29T02:15:42;99036.22;;;17.02;79.15
78431;BME280;67727;50.236;22.452;2023-07-29T02:18:09;99037.00;;;17.00;79.21
78431;BME280;67727;50.236;22.452;2023-07-29T02:20:36;99041.84;;;16.99;79.07
78431;BME280;67727;50.236;22.452;2023-07-29T02:23:03;99044.09;;;16.96;79.31
78431;BME280;67727;50.236;22.452;2023-07-29T02:25:30;99045.39;;;16.92;79.31
78431;BME280;67727;50.236;22.452;2023-07-29T02:27:56;99048.83;;;16.88;79.24
78431;BME280;67727;50.236;22.452;2023-07-29T02:30:23;99051.31;;;16.85;79.45
78431;BME280;67727;50.236;22.452;2023-07-29T02:32:50;99051.35;;;16.82;79.47
78431;BME280;67727;50.236;22.452;2023-07-29T02:35:17;99052.63;;;16.81;79.25
78431;BME280;67727;50.236;22.452;2023-07-29T02:37:43;99055.84;;;16.81;79.51
78431;BME280;67727;50.236;22.452;2023-07-29T02:40:11;99062.81;;;16.82;79.47
78431;BME280;67727;50.236;22.452;2023-07-29T02:42:37;99064.92;;;16.83;79.08
78431;BME280;67727;50.236;22.452;2023-07-29T02:45:05;99066.80;;;16.83;79.30
78431;BME280;67727;50.236;22.452;2023-07-29T02:47:39;99072.05;;;16.81;79.26
78431;BME280;67727;50.236;22.452;2023-07-29T02:50:06;99071.76;;;16.77;79.43
78431;BME280;67727;50.236;22.452;2023-07-29T02:52:33;99074.95;;;16.74;79.59
78431;BME280;67727;50.236;22.452;2023-07-29T02:55:00;99075.88;;;16.72;79.61
78431;BME280;67727;50.236;22.452;2023-07-29T02:57:26;99075.34;;;16.73;79.63
78431;BME280;67727;50.236;22.452;2023-07-29T02:59:53;99073.73;;;16.75;79.78
78431;BME280;67727;50.236;22.452;2023-07-29T03:02:20;99077.11;;;16.77;79.48
78431;BME280;67727;50.236;22.452;2023-07-29T03:04:48;99079.95;;;16.80;79.57
78431;BME280;67727;50.236;22.452;2023-07-29T03:07:14;99077.90;;;16.81;79.47
78431;BME280;67727;50.236;22.452;2023-07-29T03:09:41;99082.44;;;16.83;79.46
78431;BME280;67727;50.236;22.452;2023-07-29T03:12:08;99083.22;;;16.84;79.60
78431;BME280;67727;50.236;22.452;2023-07-29T03:14:35;99083.38;;;16.84;79.64
78431;BME280;67727;50.236;22.452;2023-07-29T03:17:03;99087.20;;;16.83;79.65
78431;BME280;67727;50.236;22.452;2023-07-29T03:19:31;99090.88;;;16.84;79.62
78431;BME280;67727;50.236;22.452;2023-07-29T03:21:57;99083.90;;;16.85;79.52
78431;BME280;67727;50.236;22.452;2023-07-29T03:24:24;99083.89;;;16.88;79.61
78431;BME280;67727;50.236;22.452;2023-07-29T03:26:51;99085.08;;;16.90;79.59
78431;BME280;67727;50.236;22.452;2023-07-29T03:29:17;99086.52;;;16.93;79.56
78431;BME280;67727;50.236;22.452;2023-07-29T03:31:44;99090.45;;;16.94;79.66
78431;BME280;67727;50.236;22.452;2023-07-29T03:34:11;99098.83;;;16.95;79.68
78431;BME280;67727;50.236;22.452;2023-07-29T03:36:39;99098.65;;;16.96;79.50
78431;BME280;67727;50.236;22.452;2023-07-29T03:39:06;99097.90;;;16.98;79.65
78431;BME280;67727;50.236;22.452;2023-07-29T03:41:34;99097.70;;;16.99;79.67
78431;BME280;67727;50.236;22.452;2023-07-29T03:44:01;99098.79;;;17.02;79.69
78431;BME280;67727;50.236;22.452;2023-07-29T03:46:27;99096.84;;;17.06;79.72
78431;BME280;67727;50.236;22.452;2023-07-29T03:48:54;99102.35;;;17.10;79.80
78431;BME280;67727;50.236;22.452;2023-07-29T03:51:21;99105.18;;;17.16;79.82
78431;BME280;67727;50.236;22.452;2023-07-29T03:53:49;99105.35;;;17.21;80.03
78431;BME280;67727;50.236;22.452;2023-07-29T03:56:16;99102.23;;;17.25;79.98
78431;BME280;67727;50.236;22.452;2023-07-29T03:58:45;99104.71;;;17.28;80.01
78431;BME280;67727;50.236;22.452;2023-07-29T04:01:13;99104.73;;;17.31;79.75
78431;BME280;67727;50.236;22.452;2023-07-29T04:03:40;99112.04;;;17.35;79.89
78431;BME280;67727;50.236;22.452;2023-07-29T04:06:07;99112.06;;;17.40;79.90
78431;BME280;67727;50.236;22.452;2023-07-29T04:08:34;99112.08;;;17.46;80.22
78431;BME280;67727;50.236;22.452;2023-07-29T04:11:01;99110.32;;;17.56;80.84
78431;BME280;67727;50.236;22.452;2023-07-29T04:13:27;99114.95;;;17.71;81.05
78431;BME280;67727;50.236;22.452;2023-07-29T04:15:54;99113.61;;;17.85;80.65
78431;BME280;67727;50.236;22.452;2023-07-29T04:18:21;99119.95;;;17.97;80.23
78431;BME280;67727;50.236;22.452;2023-07-29T04:20:48;99124.96;;;18.06;79.68
78431;BME280;67727;50.236;22.452;2023-07-29T04:23:15;99134.92;;;18.11;79.39
78431;BME280;67727;50.236;22.452;2023-07-29T04:25:42;99133.83;;;18.18;79.36
78431;BME280;67727;50.236;22.452;2023-07-29T04:28:08;99134.76;;;18.28;79.87
78431;BME280;67727;50.236;22.452;2023-07-29T04:30:35;99127.20;;;18.41;79.60
78431;BME280;67727;50.236;22.452;2023-07-29T04:33:02;99127.05;;;18.50;79.06
78431;BME280;67727;50.236;22.452;2023-07-29T04:35:29;99124.52;;;18.56;78.82
78431;BME280;67727;50.236;22.452;2023-07-29T04:37:56;99128.86;;;18.59;78.28
78431;BME280;67727;50.236;22.452;2023-07-29T04:40:22;99130.34;;;18.61;78.08
78431;BME280;67727;50.236;22.452;2023-07-29T04:42:51;99134.51;;;18.70;78.90
78431;BME280;67727;50.236;22.452;2023-07-29T04:45:18;99141.23;;;18.88;78.81
78431;BME280;67727;50.236;22.452;2023-07-29T04:47:45;99137.52;;;19.07;78.62
78431;BME280;67727;50.236;22.452;2023-07-29T04:50:12;99141.27;;;19.28;77.98
78431;BME280;67727;50.236;22.452;2023-07-29T04:52:38;99144.09;;;19.46;76.73
78431;BME280;67727;50.236;22.452;2023-07-29T04:55:05;99146.49;;;19.62;76.65
78431;BME280;67727;50.236;22.452;2023-07-29T04:57:32;99144.77;;;19.83;76.35
78431;BME280;67727;50.236;22.452;2023-07-29T04:59:59;99143.92;;;19.97;74.87
78431;BME280;67727;50.236;22.452;2023-07-29T05:02:26;99144.70;;;20.09;75.09
78431;BME280;67727;50.236;22.452;2023-07-29T05:04:52;99148.28;;;20.26;74.35
78431;BME280;67727;50.236;22.452;2023-07-29T05:07:19;99150.68;;;20.44;74.36
78431;BME280;67727;50.236;22.452;2023-07-29T05:09:47;99149.52;;;20.50;73.23
78431;BME280;67727;50.236;22.452;2023-07-29T05:12:14;99151.79;;;20.50;73.08
78431;BME280;67727;50.236;22.452;2023-07-29T05:14:41;99157.27;;;20.50;72.33
78431;BME280;67727;50.236;22.452;2023-07-29T05:17:08;99166.64;;;20.45;72.06
78431;BME280;67727;50.236;22.452;2023-07-29T05:19:35;99163.29;;;20.45;72.67
78431;BME280;67727;50.236;22.452;2023-07-29T05:22:01;99161.72;;;20.58;73.27
78431;BME280;67727;50.236;22.452;2023-07-29T05:24:28;99166.38;;;20.78;72.79
78431;BME280;67727;50.236;22.452;2023-07-29T05:26:55;99170.88;;;20.88;72.24
78431;BME280;67727;50.236;22.452;2023-07-29T05:29:22;99176.86;;;21.01;72.04
78431;BME280;67727;50.236;22.452;2023-07-29T05:31:49;99188.95;;;21.19;72.29
78431;BME280;67727;50.236;22.452;2023-07-29T05:34:15;99183.85;;;21.32;71.38
78431;BME280;67727;50.236;22.452;2023-07-29T05:36:42;99188.88;;;21.49;71.59
78431;BME280;67727;50.236;22.452;2023-07-29T05:39:09;99192.13;;;21.60;70.94
78431;BME280;67727;50.236;22.452;2023-07-29T05:41:36;99195.96;;;21.61;70.13
78431;BME280;67727;50.236;22.452;2023-07-29T05:44:03;99196.62;;;21.53;69.95
78431;BME280;67727;50.236;22.452;2023-07-29T05:46:30;99195.64;;;21.45;70.17
78431;BME280;67727;50.236;22.452;2023-07-29T05:48:56;99192.67;;;21.36;69.91
78431;BME280;67727;50.236;22.452;2023-07-29T05:51:23;99191.65;;;21.25;70.09
78431;BME280;67727;50.236;22.452;2023-07-29T05:53:50;99193.18;;;21.32;70.94
78431;BME280;67727;50.236;22.452;2023-07-29T05:56:16;99196.33;;;21.51;69.99
78431;BME280;67727;50.236;22.452;2023-07-29T05:58:43;99192.02;;;21.69;69.95
78431;BME280;67727;50.236;22.452;2023-07-29T06:01:10;99192.89;;;21.93;69.99
78431;BME280;67727;50.236;22.452;2023-07-29T06:03:37;99194.20;;;22.18;68.81
78431;BME280;67727;50.236;22.452;2023-07-29T06:06:04;99193.23;;;22.35;67.72
78431;BME280;67727;50.236;22.452;2023-07-29T06:08:31;99192.69;;;22.51;67.93
78431;BME280;67727;50.236;22.452;2023-07-29T06:11:00;99189.42;;;22.73;68.74
78431;BME280;67727;50.236;22.452;2023-07-29T06:13:27;99190.61;;;22.97;67.95
78431;BME280;67727;50.236;22.452;2023-07-29T06:15:54;99191.14;;;23.20;67.96
78431;BME280;67727;50.236;22.452;2023-07-29T06:18:21;99188.63;;;23.44;68.04
78431;BME280;67727;50.236;22.452;2023-07-29T06:20:48;99188.70;;;23.68;66.73
78431;BME280;67727;50.236;22.452;2023-07-29T06:23:14;99191.63;;;23.89;66.06
78431;BME280;67727;50.236;22.452;2023-07-29T06:25:41;99195.02;;;24.08;64.48
78431;BME280;67727;50.236;22.452;2023-07-29T06:28:09;99199.16;;;24.27;64.43
78431;BME280;67727;50.236;22.452;2023-07-29T06:30:36;99195.46;;;24.35;62.36
78431;BME280;67727;50.236;22.452;2023-07-29T06:33:03;99197.30;;;24.35;60.53
78431;BME280;67727;50.236;22.452;2023-07-29T06:35:30;99200.33;;;24.33;61.09
78431;BME280;67727;50.236;22.452;2023-07-29T06:37:56;99196.48;;;24.30;61.42
78431;BME280;67727;50.236;22.452;2023-07-29T06:40:23;99202.77;;;24.36;62.29
78431;BME280;67727;50.236;22.452;2023-07-29T06:42:50;99206.60;;;24.47;62.42
78431;BME280;67727;50.236;22.452;2023-07-29T06:45:17;99205.15;;;24.65;62.33
78431;BME280;67727;50.236;22.452;2023-07-29T06:47:44;99205.53;;;24.81;59.97
78431;BME280;67727;50.236;22.452;2023-07-29T06:50:11;99206.01;;;24.82;59.91
78431;BME280;67727;50.236;22.452;2023-07-29T06:52:39;99208.87;;;24.92;60.47
78431;BME280;67727;50.236;22.452;2023-07-29T06:55:07;99207.55;;;24.94;60.67
78431;BME280;67727;50.236;22.452;2023-07-29T06:57:34;99207.65;;;24.87;61.02
78431;BME280;67727;50.236;22.452;2023-07-29T07:00:01;99205.55;;;24.93;61.59
78431;BME280;67727;50.236;22.452;2023-07-29T07:02:28;99207.77;;;25.09;61.35
78431;BME280;67727;50.236;22.452;2023-07-29T07:04:55;99202.42;;;25.27;60.91
78431;BME280;67727;50.236;22.452;2023-07-29T07:07:22;99200.61;;;25.42;59.63
78431;BME280;67727;50.236;22.452;2023-07-29T07:09:49;99201.37;;;25.58;60.76
78431;BME280;67727;50.236;22.452;2023-07-29T07:12:16;99198.27;;;25.80;61.22
78431;BME280;67727;50.236;22.452;2023-07-29T07:14:42;99200.27;;;26.00;58.28
78431;BME280;67727;50.236;22.452;2023-07-29T07:17:09;99200.95;;;26.08;57.65
78431;BME280;67727;50.236;22.452;2023-07-29T07:19:36;99206.64;;;26.05;58.15
78431;BME280;67727;50.236;22.452;2023-07-29T07:22:03;99209.45;;;26.10;58.94
78431;BME280;67727;50.236;22.452;2023-07-29T07:24:30;99206.99;;;26.15;57.76
78431;BME280;67727;50.236;22.452;2023-07-29T07:26:57;99204.04;;;26.21;55.92
78431;BME280;67727;50.236;22.452;2023-07-29T07:29:24;99205.19;;;26.28;57.52
78431;BME280;67727;50.236;22.452;2023-07-29T07:31:52;99204.39;;;26.45;57.57
78431;BME280;67727;50.236;22.452;2023-07-29T07:34:20;99201.74;;;26.64;56.55
78431;BME280;67727;50.236;22.452;2023-07-29T07:36:48;99197.09;;;26.70;54.91
78431;BME280;67727;50.236;22.452;2023-07-29T07:39:15;99198.90;;;26.75;56.01
78431;BME280;67727;50.236;22.452;2023-07-29T07:41:42;99195.56;;;26.80;54.85
78431;BME280;67727;50.236;22.452;2023-07-29T07:44:09;99197.20;;;26.87;55.78
78431;BME280;67727;50.236;22.452;2023-07-29T07:46:37;99199.00;;;27.02;55.87
78431;BME280;67727;50.236;22.452;2023-07-29T07:49:04;99193.52;;;27.21;55.10
78431;BME280;67727;50.236;22.452;2023-07-29T07:51:31;99191.41;;;27.35;53.68
78431;BME280;67727;50.236;22.452;2023-07-29T07:53:57;99191.68;;;27.42;54.77
78431;BME280;67727;50.236;22.452;2023-07-29T07:56:24;99189.93;;;27.45;55.24
78431;BME280;67727;50.236;22.452;2023-07-29T07:58:51;99192.02;;;27.59;55.30
78431;BME280;67727;50.236;22.452;2023-07-29T08:01:17;99195.34;;;27.80;54.48
78431;BME280;67727;50.236;22.452;2023-07-29T08:03:44;99189.96;;;27.83;51.18
78431;BME280;67727;50.236;22.452;2023-07-29T08:06:11;99194.52;;;27.83;54.06
78431;BME280;67727;50.236;22.452;2023-07-29T08:08:38;99193.16;;;27.97;53.97
78431;BME280;67727;50.236;22.452;2023-07-29T08:11:05;99191.64;;;28.05;53.82
78431;BME280;67727;50.236;22.452;2023-07-29T08:13:32;99191.46;;;28.08;51.95
78431;BME280;67727;50.236;22.452;2023-07-29T08:15:58;99193.42;;;28.03;52.68
78431;BME280;67727;50.236;22.452;2023-07-29T08:18:25;99189.94;;;28.05;52.57
78431;BME280;67727;50.236;22.452;2023-07-29T08:20:52;99191.19;;;28.06;52.57
78431;BME280;67727;50.236;22.452;2023-07-29T08:23:20;99191.13;;;28.03;52.01
78431;BME280;67727;50.236;22.452;2023-07-29T08:25:57;99192.03;;;27.97;51.55
78431;BME280;67727;50.236;22.452;2023-07-29T08:28:36;99189.42;;;27.96;51.31
78431;BME280;67727;50.236;22.452;2023-07-29T08:31:04;99195.27;;;28.04;51.91
78431;BME280;67727;50.236;22.452;2023-07-29T08:33:31;99191.35;;;28.11;51.42
78431;BME280;67727;50.236;22.452;2023-07-29T08:36:00;99193.81;;;28.27;52.28
78431;BME280;67727;50.236;22.452;2023-07-29T08:38:27;99189.23;;;28.47;52.33
78431;BME280;67727;50.236;22.452;2023-07-29T08:41:06;99189.27;;;28.66;52.76
78431;BME280;67727;50.236;22.452;2023-07-29T08:43:39;99184.29;;;28.79;50.56
78431;BME280;67727;50.236;22.452;2023-07-29T08:46:09;99187.29;;;28.82;49.64
78431;BME280;67727;50.236;22.452;2023-07-29T08:48:40;99183.20;;;28.77;49.15
78431;BME280;67727;50.236;22.452;2023-07-29T08:51:11;99190.58;;;28.71;50.08
78431;BME280;67727;50.236;22.452;2023-07-29T08:53:39;99186.63;;;28.80;51.70
78431;BME280;67727;50.236;22.452;2023-07-29T08:56:06;99187.63;;;28.81;51.02
78431;BME280;67727;50.236;22.452;2023-07-29T08:58:34;99187.41;;;28.69;48.55
78431;BME280;67727;50.236;22.452;2023-07-29T09:01:01;99185.65;;;28.47;48.96
78431;BME280;67727;50.236;22.452;2023-07-29T09:03:28;99183.92;;;28.40;50.14
78431;BME280;67727;50.236;22.452;2023-07-29T09:05:56;99177.88;;;28.50;49.60
78431;BME280;67727;50.236;22.452;2023-07-29T09:08:26;99178.85;;;28.48;50.21
78431;BME280;67727;50.236;22.452;2023-07-29T09:10:53;99175.73;;;28.41;49.82
78431;BME280;67727;50.236;22.452;2023-07-29T09:13:21;99175.36;;;28.34;49.45
78431;BME280;67727;50.236;22.452;2023-07-29T09:15:48;99175.22;;;28.39;50.47
78431;BME280;67727;50.236;22.452;2023-07-29T09:18:17;99170.80;;;28.44;49.34
78431;BME280;67727;50.236;22.452;2023-07-29T09:20:49;99172.40;;;28.63;49.25
78431;BME280;67727;50.236;22.452;2023-07-29T09:23:17;99173.20;;;28.75;47.90
78431;BME280;67727;50.236;22.452;2023-07-29T09:25:46;99173.54;;;28.68;47.94
78431;BME280;67727;50.236;22.452;2023-07-29T09:28:15;99174.91;;;28.56;47.93
78431;BME280;67727;50.236;22.452;2023-07-29T09:30:45;99178.45;;;28.39;48.78
78431;BME280;67727;50.236;22.452;2023-07-29T09:33:14;99172.45;;;28.18;49.55
78431;BME280;67727;50.236;22.452;2023-07-29T09:35:41;99173.51;;;27.93;49.46
78431;BME280;67727;50.236;22.452;2023-07-29T09:38:14;99172.73;;;27.65;49.93
78431;BME280;67727;50.236;22.452;2023-07-29T09:40:42;99172.19;;;27.42;49.64
78431;BME280;67727;50.236;22.452;2023-07-29T09:43:11;99170.46;;;27.38;51.21
78431;BME280;67727;50.236;22.452;2023-07-29T09:45:38;99166.95;;;27.51;51.02
78431;BME280;67727;50.236;22.452;2023-07-29T09:48:05;99167.13;;;27.71;50.75
78431;BME280;67727;50.236;22.452;2023-07-29T09:50:36;99168.11;;;27.96;49.82
78431;BME280;67727;50.236;22.452;2023-07-29T09:53:03;99162.05;;;28.14;50.07
78431;BME280;67727;50.236;22.452;2023-07-29T09:55:32;99162.84;;;28.41;50.21
78431;BME280;67727;50.236;22.452;2023-07-29T09:58:07;99158.60;;;28.67;50.07
78431;BME280;67727;50.236;22.452;2023-07-29T10:00:35;99153.50;;;28.91;49.21
78431;BME280;67727;50.236;22.452;2023-07-29T10:03:03;99152.34;;;29.10;49.92
78431;BME280;67727;50.236;22.452;2023-07-29T10:05:30;99152.75;;;29.32;48.64
78431;BME280;67727;50.236;22.452;2023-07-29T10:07:57;99155.19;;;29.43;48.27
78431;BME280;67727;50.236;22.452;2023-07-29T10:10:23;99155.27;;;29.57;47.41
78431;BME280;67727;50.236;22.452;2023-07-29T10:12:51;99153.20;;;29.50;44.55
78431;BME280;67727;50.236;22.452;2023-07-29T10:15:18;99157.51;;;29.24;45.13
78431;BME280;67727;50.236;22.452;2023-07-29T10:17:46;99153.89;;;29.15;46.17
78431;BME280;67727;50.236;22.452;2023-07-29T10:20:13;99152.09;;;29.09;47.56
78431;BME280;67727;50.236;22.452;2023-07-29T10:22:40;99155.40;;;29.21;48.24
78431;BME280;67727;50.236;22.452;2023-07-29T10:25:16;99152.83;;;29.33;47.29
78431;BME280;67727;50.236;22.452;2023-07-29T10:30:11;99149.94;;;29.72;47.56
78431;BME280;67727;50.236;22.452;2023-07-29T10:32:42;99142.80;;;29.83;44.87
78431;BME280;67727;50.236;22.452;2023-07-29T10:35:14;99146.23;;;29.89;46.71
78431;BME280;67727;50.236;22.452;2023-07-29T10:37:42;99145.66;;;29.94;45.50
78431;BME280;67727;50.236;22.452;2023-07-29T10:40:10;99138.93;;;29.97;44.47
78431;BME280;67727;50.236;22.452;2023-07-29T10:42:38;99132.39;;;30.04;45.92
78431;BME280;67727;50.236;22.452;2023-07-29T10:45:25;99131.48;;;30.14;46.14
78431;BME280;67727;50.236;22.452;2023-07-29T10:47:52;99124.20;;;30.07;45.47
78431;BME280;67727;50.236;22.452;2023-07-29T10:50:20;99119.95;;;30.05;45.67
78431;BME280;67727;50.236;22.452;2023-07-29T10:52:52;99120.63;;;30.08;45.03
78431;BME280;67727;50.236;22.452;2023-07-29T10:57:51;99118.52;;;30.19;45.42
78431;BME280;67727;50.236;22.452;2023-07-29T11:00:21;99116.91;;;30.28;45.88
78431;BME280;67727;50.236;22.452;2023-07-29T11:03:08;99116.69;;;30.32;45.73
78431;BME280;67727;50.236;22.452;2023-07-29T11:05:44;99117.95;;;30.34;44.14
78431;BME280;67727;50.236;22.452;2023-07-29T11:08:21;99114.68;;;30.19;41.70
78431;BME280;67727;50.236;22.452;2023-07-29T11:11:18;99114.15;;;30.03;44.20
78431;BME280;67727;50.236;22.452;2023-07-29T11:13:45;99108.88;;;30.03;44.94
78431;BME280;67727;50.236;22.452;2023-07-29T11:16:16;99111.52;;;30.11;46.35
78431;BME280;67727;50.236;22.452;2023-07-29T11:18:44;99110.77;;;30.24;45.91
78431;BME280;67727;50.236;22.452;2023-07-29T11:21:13;99101.52;;;30.48;46.31
78431;BME280;67727;50.236;22.452;2023-07-29T11:23:40;99100.77;;;30.76;45.49
78431;BME280;67727;50.236;22.452;2023-07-29T11:26:07;99098.95;;;30.99;44.47
78431;BME280;67727;50.236;22.452;2023-07-29T11:28:38;99099.45;;;31.13;44.24
78431;BME280;67727;50.236;22.452;2023-07-29T11:31:05;99095.02;;;31.19;43.61
78431;BME280;67727;50.236;22.452;2023-07-29T11:33:32;99097.70;;;31.24;42.19
78431;BME280;67727;50.236;22.452;2023-07-29T11:35:59;99098.23;;;31.30;43.23
78431;BME280;67727;50.236;22.452;2023-07-29T11:38:26;99099.38;;;31.37;43.24
78431;BME280;67727;50.236;22.452;2023-07-29T11:41:00;99099.06;;;31.47;43.46
78431;BME280;67727;50.236;22.452;2023-07-29T11:43:27;99097.52;;;31.59;43.79
78431;BME280;67727;50.236;22.452;2023-07-29T11:45:54;99099.27;;;31.67;43.08
78431;BME280;67727;50.236;22.452;2023-07-29T11:48:30;99097.89;;;31.62;42.48
78431;BME280;67727;50.236;22.452;2023-07-29T11:50:57;99095.81;;;31.46;43.04
78431;BME280;67727;50.236;22.452;2023-07-29T11:53:28;99091.92;;;31.29;43.14
78431;BME280;67727;50.236;22.452;2023-07-29T11:55:57;99091.67;;;31.10;42.88
78431;BME280;67727;50.236;22.452;2023-07-29T11:58:24;99092.51;;;30.93;43.45
78431;BME280;67727;50.236;22.452;2023-07-29T12:00:51;99094.89;;;30.79;43.83
78431;BME280;67727;50.236;22.452;2023-07-29T12:03:18;99095.05;;;30.66;44.11
78431;BME280;67727;50.236;22.452;2023-07-29T12:05:45;99097.31;;;30.53;44.89
78431;BME280;67727;50.236;22.452;2023-07-29T12:08:12;99101.09;;;30.43;45.32
78431;BME280;67727;50.236;22.452;2023-07-29T12:10:39;99100.80;;;30.38;45.25
78431;BME280;67727;50.236;22.452;2023-07-29T12:13:07;99099.70;;;30.50;46.18
78431;BME280;67727;50.236;22.452;2023-07-29T12:15:34;99101.97;;;30.63;45.66
78431;BME280;67727;50.236;22.452;2023-07-29T12:18:01;99102.94;;;30.77;45.23
78431;BME280;67727;50.236;22.452;2023-07-29T12:20:29;99106.40;;;30.87;45.14
78431;BME280;67727;50.236;22.452;2023-07-29T12:22:57;99103.23;;;30.79;44.36
78431;BME280;67727;50.236;22.452;2023-07-29T12:25:26;99099.91;;;30.64;44.64
78431;BME280;67727;50.236;22.452;2023-07-29T12:27:53;99092.10;;;30.47;44.92
78431;BME280;67727;50.236;22.452;2023-07-29T12:30:23;99090.52;;;30.39;45.06
78431;BME280;67727;50.236;22.452;2023-07-29T12:32:51;99096.77;;;30.32;45.73
78431;BME280;67727;50.236;22.452;2023-07-29T12:35:18;99094.39;;;30.24;45.65
78431;BME280;67727;50.236;22.452;2023-07-29T12:37:45;99098.78;;;30.13;45.76
78431;BME280;67727;50.236;22.452;2023-07-29T12:40:26;99095.50;;;30.00;45.75
78431;BME280;67727;50.236;22.452;2023-07-29T12:42:53;99092.39;;;29.82;45.99
78431;BME280;67727;50.236;22.452;2023-07-29T12:45:20;99093.02;;;29.67;46.11
78431;BME280;67727;50.236;22.452;2023-07-29T12:47:50;99092.17;;;29.54;46.04
78431;BME280;67727;50.236;22.452;2023-07-29T12:50:17;99089.15;;;29.41;46.67
78431;BME280;67727;50.236;22.452;2023-07-29T12:52:44;99085.70;;;29.43;46.78
78431;BME280;67727;50.236;22.452;2023-07-29T12:55:11;99083.54;;;29.50;46.20
78431;BME280;67727;50.236;22.452;2023-07-29T12:57:41;99077.91;;;29.42;45.91
78431;BME280;67727;50.236;22.452;2023-07-29T13:00:10;99078.48;;;29.38;46.98
78431;BME280;67727;50.236;22.452;2023-07-29T13:02:37;99080.16;;;29.40;46.29
78431;BME280;67727;50.236;22.452;2023-07-29T13:05:04;99075.84;;;29.48;45.47